Time;durP1;ratioP1;P1;durP2;ratioP2;P2;SDS_P1;SDS_P2;PMS_P1;PMS_P2;Temp;Humidity;BMP_temperature;BMP_pressure;BME280_temperature;BME280_humidity;BME280_pressure;Samples;Min_cycle;Max_cycle;Signal;HPM_P1;HPM_P2
2022/04/25 00:00:10;;;;;;;10.17;5.13;;;;;;;10.52;100.00;99357.94;10542197;28;20555;-67
2022/04/25 00:05:35;;;;;;;9.43;5.33;;;;;;;10.52;100.00;99353.59;10541744;28;20235;-69
2022/04/25 00:10:38;;;;;;;8.67;5.67;;;;;;;10.48;100.00;99357.16;10542483;28;20203;-71
2022/04/25 00:15:42;;;;;;;7.70;4.57;;;;;;;10.51;100.00;99354.47;10541999;28;20532;-68
2022/04/25 00:20:46;;;;;;;7.93;4.50;;;;;;;10.43;100.00;99351.25;10542115;28;20203;-69
2022/04/25 00:25:49;;;;;;;7.37;4.30;;;;;;;10.49;100.00;99351.94;10541769;28;20241;-71
2022/04/25 00:30:53;;;;;;;10.13;4.80;;;;;;;10.48;100.00;99349.38;10541548;28;20218;-73
2022/04/25 00:35:57;;;;;;;7.73;4.73;;;;;;;10.47;100.00;99345.09;10541357;28;20223;-70
2022/04/25 00:41:01;;;;;;;7.90;4.60;;;;;;;10.36;100.00;99347.09;10541250;28;20219;-69
2022/04/25 00:46:04;;;;;;;9.47;4.67;;;;;;;10.41;100.00;99347.84;10541011;28;20560;-71
2022/04/25 00:51:09;;;;;;;7.27;4.20;;;;;;;10.33;100.00;99354.97;10541101;28;20276;-67
2022/04/25 00:56:15;;;;;;;8.43;4.50;;;;;;;10.25;100.00;99354.31;10541045;28;20228;-70
2022/04/25 01:01:19;;;;;;;8.17;4.67;;;;;;;10.34;100.00;99351.47;10541007;28;20215;-68
2022/04/25 01:06:24;;;;;;;10.27;5.93;;;;;;;10.35;100.00;99342.81;10541146;28;20230;-71
2022/04/25 01:11:28;;;;;;;8.50;4.87;;;;;;;10.32;100.00;99343.72;10544730;28;20233;-74
2022/04/25 01:16:31;;;;;;;10.57;5.43;;;;;;;10.29;100.00;99340.38;10548273;28;20230;-68
2022/04/25 01:21:41;;;;;;;9.03;5.10;;;;;;;10.25;100.00;99326.63;10548250;28;20226;-73
2022/04/25 01:32:07;;;;;;;7.67;4.27;;;;;;;10.16;100.00;99332.03;10547662;28;20215;-71
2022/04/25 01:37:12;;;;;;;6.83;3.93;;;;;;;10.16;100.00;99321.66;10547480;28;20231;-72
2022/04/25 01:42:18;;;;;;;7.43;3.67;;;;;;;10.11;100.00;99313.16;10547460;28;20576;-69
2022/04/25 01:47:21;;;;;;;7.00;4.23;;;;;;;10.09;100.00;99316.69;10547350;28;20191;-71
2022/04/25 01:52:30;;;;;;;8.43;3.77;;;;;;;10.11;100.00;99312.31;10546812;28;20226;-69
2022/04/25 01:57:35;;;;;;;7.63;3.93;;;;;;;10.10;100.00;99311.47;10546554;28;20223;-69
2022/04/25 02:02:38;;;;;;;7.43;3.63;;;;;;;10.03;100.00;99319.38;10546257;28;20261;-71
2022/04/25 02:07:41;;;;;;;8.87;4.03;;;;;;;10.06;100.00;99311.56;10546181;28;20310;-69
2022/04/25 02:12:46;;;;;;;8.47;4.50;;;;;;;10.14;100.00;99310.50;10546093;28;20230;-71
2022/04/25 02:17:49;;;;;;;6.53;3.50;;;;;;;10.12;100.00;99314.88;10546060;28;20227;-69
2022/04/25 02:22:53;;;;;;;7.60;3.93;;;;;;;10.05;100.00;99309.84;10545744;28;20216;-69
2022/04/25 02:28:00;;;;;;;8.30;4.70;;;;;;;10.07;100.00;99308.91;10545502;28;20285;-68
2022/04/25 02:33:03;;;;;;;9.70;4.10;;;;;;;10.08;100.00;99304.56;10545260;28;20230;-71
2022/04/25 02:38:06;;;;;;;8.93;3.77;;;;;;;10.03;100.00;99296.91;10544996;28;20302;-71
2022/04/25 02:43:11;;;;;;;7.70;3.83;;;;;;;10.01;100.00;99313.41;10544708;28;20533;-71
2022/04/25 02:48:14;;;;;;;7.87;4.10;;;;;;;9.99;100.00;99316.00;10544539;28;20555;-72
2022/04/25 02:53:17;;;;;;;6.70;3.57;;;;;;;9.99;100.00;99312.59;10544541;28;20595;-69
2022/04/25 02:58:22;;;;;;;6.27;3.67;;;;;;;9.98;100.00;99311.72;10544190;28;20223;-66
2022/04/25 03:03:27;;;;;;;6.30;3.50;;;;;;;10.00;100.00;99314.28;10543777;28;20326;-70
2022/04/25 03:08:31;;;;;;;7.27;4.07;;;;;;;9.98;100.00;99314.31;10543841;28;20219;-66
2022/04/25 03:13:37;;;;;;;7.13;3.80;;;;;;;9.99;100.00;99325.56;10543733;28;20215;-72
2022/04/25 03:18:40;;;;;;;6.70;3.77;;;;;;;9.93;100.00;99330.88;10542607;28;20535;-71
2022/04/25 03:23:43;;;;;;;6.87;3.63;;;;;;;9.98;100.00;99331.59;10543447;28;20721;-69
2022/04/25 03:28:48;;;;;;;7.27;4.13;;;;;;;10.00;100.00;99329.84;10543118;28;20233;-72
2022/04/25 03:33:52;;;;;;;7.07;3.90;;;;;;;9.98;100.00;99326.41;10542605;28;20606;-72
2022/04/25 03:38:55;;;;;;;8.57;4.57;;;;;;;9.99;100.00;99333.34;10536080;28;20651;-73
2022/04/25 03:44:00;;;;;;;7.73;4.37;;;;;;;9.95;100.00;99331.69;10542840;28;20219;-71
2022/04/25 03:49:03;;;;;;;7.70;4.50;;;;;;;9.99;100.00;99339.34;10542729;28;20219;-69
2022/04/25 03:54:06;;;;;;;7.27;4.13;;;;;;;10.05;100.00;99341.81;10542374;28;20226;-69
2022/04/25 03:59:11;;;;;;;7.13;4.10;;;;;;;10.02;100.00;99344.47;10542306;28;20227;-71
2022/04/25 04:04:14;;;;;;;7.57;4.27;;;;;;;9.98;100.00;99341.97;10542034;28;20541;-71
2022/04/25 04:14:40;;;;;;;7.80;4.10;;;;;;;10.13;100.00;99355.44;10541848;28;20562;-70
2022/04/25 04:19:44;;;;;;;7.93;4.47;;;;;;;10.08;100.00;99359.00;10541703;28;20219;-69
2022/04/25 04:24:47;;;;;;;7.13;4.40;;;;;;;10.08;100.00;99359.00;10541596;28;20580;-70
2022/04/25 04:29:51;;;;;;;7.53;4.60;;;;;;;10.03;100.00;99359.13;10541528;28;20216;-73
2022/04/25 04:34:55;;;;;;;7.40;4.50;;;;;;;10.08;100.00;99367.69;10541520;28;20229;-71
2022/04/25 04:45:16;;;;;;;10.43;5.27;;;;;;;10.12;100.00;99377.09;10543557;28;20233;-70
2022/04/25 04:50:20;;;;;;;9.03;5.67;;;;;;;10.14;100.00;99390.03;10549408;28;20301;-70
2022/04/25 04:55:23;;;;;;;10.67;6.10;;;;;;;10.16;100.00;99386.47;10549092;28;20216;-71
2022/04/25 05:00:28;;;;;;;11.10;6.23;;;;;;;10.24;100.00;99386.31;10548836;28;20219;-72
2022/04/25 05:05:32;;;;;;;9.40;6.37;;;;;;;10.24;100.00;99396.69;10548539;28;20253;-71
2022/04/25 05:10:35;;;;;;;9.50;6.20;;;;;;;10.21;100.00;99399.34;10548508;28;20644;-71
2022/04/25 05:15:40;;;;;;;12.50;6.63;;;;;;;10.23;100.00;99390.63;10548167;28;20235;-69
2022/04/25 05:20:43;;;;;;;11.73;7.27;;;;;;;10.28;100.00;99394.00;10547918;28;20237;-69
2022/04/25 05:25:46;;;;;;;11.77;8.13;;;;;;;10.25;100.00;99394.03;10547833;28;20215;-66
2022/04/25 05:30:51;;;;;;;12.50;8.00;;;;;;;10.32;100.00;99394.75;10548021;28;20223;-72
2022/04/25 05:35:55;;;;;;;13.50;8.50;;;;;;;10.35;100.00;99399.88;10548021;28;20216;-68
2022/04/25 05:40:58;;;;;;;11.03;6.63;;;;;;;10.35;100.00;99399.88;10547324;28;20227;-68
2022/04/25 05:46:03;;;;;;;10.50;6.67;;;;;;;10.21;100.00;99402.81;10546905;28;20298;-70
2022/04/25 05:56:23;;;;;;;13.10;6.43;;;;;;;10.32;100.00;99407.72;10513994;28;20203;-71
2022/04/25 06:01:29;;;;;;;11.50;6.63;;;;;;;10.36;100.00;99404.16;10546154;28;20237;-69
2022/04/25 06:06:32;;;;;;;9.80;6.33;;;;;;;10.36;100.00;99422.31;10546190;28;20552;-75
2022/04/25 06:11:35;;;;;;;8.70;6.37;;;;;;;10.24;100.00;99427.81;10536912;28;20299;-74
2022/04/25 06:16:41;;;;;;;10.13;6.23;;;;;;;10.35;100.00;99428.41;10532931;28;20216;-69
2022/04/25 06:21:44;;;;;;;10.70;6.70;;;;;;;10.37;100.00;99432.66;10545614;28;20267;-69
2022/04/25 06:26:49;;;;;;;9.83;5.43;;;;;;;10.46;100.00;99437.63;10544695;28;20230;-71
2022/04/25 06:31:54;;;;;;;8.53;5.60;;;;;;;10.46;100.00;99427.25;10546117;28;20225;-70
2022/04/25 06:36:58;;;;;;;9.23;5.70;;;;;;;10.53;100.00;99429.72;10542925;28;20223;-72
2022/04/25 06:42:01;;;;;;;7.60;5.70;;;;;;;10.53;100.00;99430.53;10541171;28;20301;-72
2022/04/25 06:47:07;;;;;;;10.00;5.87;;;;;;;10.65;100.00;99438.00;10543544;28;20286;-71
2022/04/25 06:52:10;;;;;;;8.97;6.10;;;;;;;10.69;100.00;99439.66;10541693;28;20293;-71
2022/04/25 06:57:14;;;;;;;9.57;5.33;;;;;;;10.63;100.00;99444.97;10542989;28;20214;-70
2022/04/25 07:02:19;;;;;;;11.63;6.60;;;;;;;10.57;100.00;99446.88;10542891;28;20589;-72
2022/04/25 07:07:22;;;;;;;12.37;7.37;;;;;;;10.52;100.00;99451.34;10540520;28;20229;-72
2022/04/25 07:12:27;;;;;;;11.70;7.93;;;;;;;10.55;100.00;99453.84;10543838;28;20208;-70
2022/04/25 07:17:32;;;;;;;13.47;7.50;;;;;;;10.57;100.00;99458.13;10542523;28;20657;-69
2022/04/25 07:33:18;;;;;;;11.80;6.13;;;;;;;10.46;100.00;99473.94;10541812;28;20215;-67
2022/04/25 07:38:22;;;;;;;9.90;6.70;;;;;;;10.45;100.00;99473.97;10539373;28;20211;-67
2022/04/25 07:43:25;;;;;;;11.57;6.70;;;;;;;10.39;100.00;99490.53;10541650;28;20590;-66
2022/04/25 07:48:30;;;;;;;9.97;6.07;;;;;;;10.47;100.00;99495.56;10539897;28;20237;-67
2022/04/25 07:53:33;;;;;;;8.47;5.43;;;;;;;10.46;100.00;99493.84;10541526;28;20212;-67
2022/04/25 07:58:37;;;;;;;7.47;5.10;;;;;;;10.51;100.00;99497.16;10540974;28;20248;-65
2022/04/25 08:03:42;;;;;;;8.63;5.50;;;;;;;10.64;100.00;99500.34;10538680;28;20223;-67
2022/04/25 08:08:45;;;;;;;9.77;5.73;;;;;;;10.70;100.00;99507.97;10540543;28;20660;-68
2022/04/25 08:19:23;;;;;;;9.83;5.80;;;;;;;10.68;100.00;99513.22;10454598;28;20253;-70
2022/04/25 08:24:26;;;;;;;8.77;5.03;;;;;;;10.80;100.00;99510.31;10547787;28;20207;-67
2022/04/25 08:29:29;;;;;;;10.23;5.87;;;;;;;10.80;100.00;99514.66;10548896;28;20219;-68
2022/04/25 08:34:35;;;;;;;8.87;5.43;;;;;;;10.99;100.00;99518.50;10546836;28;20208;-69
2022/04/25 08:39:39;;;;;;;9.63;5.53;;;;;;;11.12;100.00;99525.94;10548557;28;20230;-65
2022/04/25 08:44:43;;;;;;;9.50;5.53;;;;;;;11.23;100.00;99528.25;10548796;28;20286;-62
2022/04/25 08:49:48;;;;;;;8.63;5.00;;;;;;;11.30;100.00;99528.03;10548227;28;20280;-67
2022/04/25 08:54:54;;;;;;;11.73;4.70;;;;;;;11.34;100.00;99531.41;10545841;28;20219;-67
2022/04/25 08:59:59;;;;;;;8.00;4.30;;;;;;;11.37;100.00;99534.78;10547932;28;20705;-71
2022/04/25 09:05:05;;;;;;;9.63;5.63;;;;;;;11.35;100.00;99539.19;10547836;28;20227;-67
2022/04/25 09:10:09;;;;;;;7.00;4.13;;;;;;;11.35;100.00;99544.38;10547489;28;20692;-65
2022/04/25 09:15:13;;;;;;;9.37;4.40;;;;;;;11.27;100.00;99548.91;10547558;28;20234;-69
2022/04/25 09:20:28;;;;;;;9.27;4.67;;;;;;;11.36;100.00;99546.06;10546910;28;20276;-69
2022/04/25 09:25:31;;;;;;;9.13;4.40;;;;;;;11.49;100.00;99552.63;10545426;28;20216;-67
2022/04/25 09:30:56;;;;;;;7.77;4.40;;;;;;;11.50;100.00;99556.97;10546709;28;20219;-66
2022/04/25 09:36:02;;;;;;;8.00;4.23;;;;;;;11.45;100.00;99558.81;10547679;28;20307;-69
2022/04/25 09:41:09;;;;;;;9.23;4.90;;;;;;;11.44;100.00;99564.91;10535557;28;20291;-71
2022/04/25 09:46:14;;;;;;;7.57;5.23;;;;;;;11.43;100.00;99568.41;10547237;28;20208;-73
2022/04/25 09:51:18;;;;;;;7.57;4.73;;;;;;;11.52;100.00;99577.69;10546680;28;20241;-71
2022/04/25 09:56:23;;;;;;;7.53;4.37;;;;;;;11.51;100.00;99578.56;10547054;28;20225;-76
2022/04/25 10:01:27;;;;;;;8.30;4.80;;;;;;;11.65;100.00;99583.47;10546134;28;20227;-69
2022/04/25 10:06:35;;;;;;;7.77;4.53;;;;;;;11.61;100.00;99586.09;10546365;28;20212;-73
2022/04/25 10:11:41;;;;;;;12.43;5.30;;;;;;;11.68;100.00;99596.38;10545758;28;20544;-69
2022/04/25 10:16:46;;;;;;;8.40;4.17;;;;;;;11.59;100.00;99598.31;10546658;28;20764;-71
2022/04/25 10:21:55;;;;;;;6.93;4.47;;;;;;;11.57;100.00;99596.63;10545390;28;20272;-70
2022/04/25 10:27:06;;;;;;;7.53;3.97;;;;;;;11.55;100.00;99601.88;10537450;28;20262;-69
2022/04/25 10:32:11;;;;;;;7.40;4.17;;;;;;;11.56;100.00;99598.34;10503621;28;20219;-72
2022/04/25 10:37:33;;;;;;;5.73;3.50;;;;;;;11.51;100.00;99602.81;10503478;28;20552;-69
2022/04/25 10:48:12;;;;;;;7.07;4.00;;;;;;;11.64;100.00;99608.59;10545100;28;20223;-62
2022/04/25 10:53:16;;;;;;;6.73;4.00;;;;;;;11.72;100.00;99613.59;10544228;28;20764;-68
2022/04/25 10:58:21;;;;;;;9.30;4.10;;;;;;;11.69;100.00;99618.84;10544567;28;20211;-68
2022/04/25 11:03:32;;;;;;;8.37;4.17;;;;;;;11.69;100.00;99621.47;10543324;28;20736;-66
2022/04/25 11:08:39;;;;;;;7.67;4.20;;;;;;;11.74;100.00;99625.66;10543983;28;20271;-69
2022/04/25 11:14:17;;;;;;;10.93;4.03;;;;;;;11.85;100.00;99627.97;10543288;28;20222;-67
2022/04/25 11:19:22;;;;;;;12.47;5.17;;;;;;;11.83;100.00;99637.56;10543465;28;20675;-67
2022/04/25 11:24:33;;;;;;;9.40;5.00;;;;;;;11.82;100.00;99641.06;10542893;28;20607;-69
2022/04/25 11:29:44;;;;;;;7.83;4.67;;;;;;;11.92;100.00;99635.56;10543261;28;20253;-71
2022/04/25 11:34:48;;;;;;;7.70;5.30;;;;;;;12.06;100.00;99638.63;10506780;28;20220;-72
2022/04/25 11:40:00;;;;;;;6.97;4.50;;;;;;;12.07;100.00;99652.50;10500595;28;20242;-66
2022/04/25 11:45:05;;;;;;;8.07;4.87;;;;;;;12.14;100.00;99648.81;10523206;28;20279;-69
2022/04/25 11:50:11;;;;;;;10.57;4.90;;;;;;;12.24;100.00;99652.88;10542734;28;20276;-73
2022/04/25 11:55:17;;;;;;;8.80;5.23;;;;;;;12.32;100.00;99653.53;10543040;28;20216;-69
2022/04/25 12:00:21;;;;;;;7.77;4.20;;;;;;;12.29;100.00;99656.19;10542383;28;20229;-72
2022/04/25 12:05:29;;;;;;;9.37;4.63;;;;;;;12.23;100.00;99658.97;10541871;28;20239;-68
2022/04/25 12:15:55;;;;;;;9.00;4.00;;;;;;;12.29;100.00;99658.78;10541528;28;20647;-70
2022/04/25 12:21:03;;;;;;;8.97;4.43;;;;;;;12.31;100.00;99659.59;10541806;28;20657;-70
2022/04/25 12:26:17;;;;;;;9.13;4.37;;;;;;;12.38;100.00;99668.94;10541461;28;20215;-68
2022/04/25 12:31:20;;;;;;;9.23;3.77;;;;;;;12.55;100.00;99666.72;10541875;28;20230;-68
2022/04/25 12:36:27;;;;;;;7.27;3.47;;;;;;;12.69;99.98;99662.81;10541167;28;20215;-69
2022/04/25 12:41:40;;;;;;;8.07;3.40;;;;;;;12.68;100.00;99668.06;10541052;28;20219;-68
2022/04/25 12:46:44;;;;;;;8.43;3.37;;;;;;;12.67;99.04;99663.75;10499669;28;20549;-69
2022/04/25 12:51:58;;;;;;;9.17;4.20;;;;;;;12.54;99.54;99665.88;10499874;28;20306;-65
2022/04/25 12:57:13;;;;;;;10.57;4.30;;;;;;;12.66;100.00;99667.25;10541304;28;20215;-66
2022/04/25 13:02:19;;;;;;;8.57;3.73;;;;;;;12.72;100.00;99664.47;10540393;28;20238;-68
2022/04/25 13:07:24;;;;;;;7.70;4.00;;;;;;;12.78;97.92;99664.28;10544863;28;20212;-68
2022/04/25 13:12:34;;;;;;;6.60;2.97;;;;;;;12.72;96.06;99682.69;10548193;28;20665;-70
2022/04/25 13:17:38;;;;;;;6.97;3.20;;;;;;;12.58;95.81;99684.88;10549256;28;20219;-72
2022/04/25 13:22:42;;;;;;;6.07;3.40;;;;;;;12.65;96.05;99681.16;10547633;28;20602;-67
2022/04/25 13:27:48;;;;;;;7.43;3.80;;;;;;;12.71;99.83;99691.41;10547831;28;20215;-71
2022/04/25 13:32:53;;;;;;;7.53;3.57;;;;;;;12.79;96.19;99687.69;10547547;28;20229;-69
2022/04/25 13:37:56;;;;;;;9.50;4.17;;;;;;;12.76;95.80;99689.53;10548374;28;20287;-69
2022/04/25 13:43:04;;;;;;;8.43;4.10;;;;;;;12.73;96.17;99692.22;10547070;28;20219;-69
2022/04/25 13:48:08;;;;;;;8.90;3.67;;;;;;;12.68;93.78;99696.72;10547286;28;20298;-67
2022/04/25 13:53:12;;;;;;;8.73;3.40;;;;;;;12.67;96.19;99698.47;10546649;28;20296;-70
2022/04/25 13:58:17;;;;;;;6.87;3.60;;;;;;;12.53;96.30;99704.94;10540646;28;20207;-61
2022/04/25 14:03:21;;;;;;;9.47;3.50;;;;;;;12.45;94.52;99710.38;10545941;28;20288;-66
2022/04/25 14:08:25;;;;;;;6.03;3.60;;;;;;;12.33;94.95;99717.66;10546374;28;20581;-64
2022/04/25 14:13:30;;;;;;;9.50;3.80;;;;;;;12.32;99.71;99722.00;10545692;28;20297;-65
2022/04/25 14:18:34;;;;;;;6.77;3.43;;;;;;;12.38;100.00;99732.28;10545826;28;20222;-74
2022/04/25 14:23:38;;;;;;;9.10;4.37;;;;;;;12.44;97.96;99739.06;10545223;28;20245;-68
2022/04/25 14:28:44;;;;;;;7.23;3.50;;;;;;;12.47;97.07;99738.97;10545373;28;20219;-69
2022/04/25 14:34:08;;;;;;;7.83;4.00;;;;;;;12.49;97.87;99738.00;10544734;28;20225;-71
2022/04/25 14:39:11;;;;;;;7.20;3.30;;;;;;;12.47;96.72;99739.84;10545421;28;20211;-69
2022/04/25 14:44:16;;;;;;;8.00;3.60;;;;;;;12.50;97.81;99744.09;10544271;28;20657;-64
2022/04/25 14:54:20;;;;;;;8.57;4.50;;;;;;;12.50;95.00;99744.09;10544983;28;20220;-63
2022/04/25 14:54:43;;;;;;;8.47;3.60;;;;;;;12.48;96.39;99738.94;10544934;28;20260;-63
2022/04/25 14:59:47;;;;;;;11.23;3.80;;;;;;;12.55;97.14;99744.81;10543884;28;20218;-69
2022/04/25 15:04:51;;;;;;;15.77;8.20;;;;;;;12.54;98.55;99745.72;10542328;28;20314;-65
2022/04/25 15:09:54;;;;;;;7.43;4.00;;;;;;;12.45;97.28;99756.38;10543699;28;20682;-67
2022/04/25 15:14:59;;;;;;;11.10;4.87;;;;;;;12.27;99.32;99767.28;10542205;28;20219;-65
2022/04/25 15:20:03;;;;;;;8.30;3.70;;;;;;;12.23;100.00;99770.84;10539732;28;20217;-61
2022/04/25 15:25:06;;;;;;;9.13;3.90;;;;;;;12.12;100.00;99775.47;10539730;28;20752;-64
2022/04/25 15:30:12;;;;;;;7.60;3.73;;;;;;;11.98;99.48;99770.63;10541598;28;20286;-64
2022/04/25 15:35:15;;;;;;;8.13;3.57;;;;;;;12.02;100.00;99772.25;10541783;28;20207;-60
2022/04/25 15:40:18;;;;;;;8.80;5.33;;;;;;;12.00;100.00;99767.97;10538687;28;20221;-63
2022/04/25 15:45:23;;;;;;;25.80;14.90;;;;;;;11.98;100.00;99773.22;10540320;28;20249;-67
2022/04/25 15:50:27;;;;;;;10.07;5.17;;;;;;;11.95;100.00;99778.50;10542049;28;20640;-62
2022/04/25 16:00:52;;;;;;;10.27;6.10;;;;;;;11.89;99.88;99791.66;10539432;28;20215;-67
2022/04/25 16:05:56;;;;;;;11.03;5.93;;;;;;;11.84;99.52;99787.47;10514274;28;20674;-65
2022/04/25 16:11:01;;;;;;;24.10;13.33;;;;;;;11.85;97.60;99794.38;10500275;28;20637;-63
2022/04/25 16:16:06;;;;;;;9.60;5.80;;;;;;;11.85;98.20;99794.38;10500087;28;20202;-64
2022/04/25 16:21:10;;;;;;;11.20;5.80;;;;;;;11.79;99.07;99799.72;10500658;28;20560;-64
2022/04/25 16:26:13;;;;;;;8.53;5.70;;;;;;;11.79;100.00;99803.16;10501355;28;20272;-63
2022/04/25 16:31:18;;;;;;;10.37;5.73;;;;;;;11.77;100.00;99810.16;10541739;28;20199;-67
2022/04/25 16:36:21;;;;;;;9.27;5.43;;;;;;;11.76;100.00;99811.06;10541626;28;20190;-65
2022/04/25 16:41:24;;;;;;;8.33;5.43;;;;;;;11.75;100.00;99813.69;10545225;28;20706;-63
2022/04/25 16:46:31;;;;;;;10.00;5.60;;;;;;;11.70;100.00;99820.75;10550484;28;20195;-65
2022/04/25 16:51:34;;;;;;;8.77;5.57;;;;;;;11.65;100.00;99827.81;10550173;28;20191;-57
2022/04/25 16:56:37;;;;;;;9.80;5.70;;;;;;;11.64;100.00;99834.72;10550255;28;20196;-67
2022/04/25 17:01:42;;;;;;;8.93;5.00;;;;;;;11.65;100.00;99835.59;10549373;28;20259;-66
2022/04/25 17:06:46;;;;;;;10.00;5.43;;;;;;;11.59;100.00;99850.41;10549109;28;20254;-65
2022/04/25 17:11:49;;;;;;;9.93;5.80;;;;;;;11.50;100.00;99854.94;10549678;28;20643;-65
2022/04/25 17:16:54;;;;;;;11.50;6.03;;;;;;;11.57;100.00;99854.78;10542100;28;20296;-66
2022/04/25 17:21:58;;;;;;;10.30;5.83;;;;;;;11.48;100.00;99869.69;10510003;28;20280;-70
2022/04/25 17:27:01;;;;;;;10.27;5.80;;;;;;;11.46;100.00;99869.75;10541633;28;20399;-73
